createdAt,value
2019-01-22T00:00:45.527Z,29.25
2019-01-22T00:03:14.870Z,28.67
2019-01-22T00:05:44.239Z,21.87
2019-01-22T00:08:13.586Z,24.70
2019-01-22T00:10:42.984Z,22.20
2019-01-22T00:13:12.322Z,21.95
2019-01-22T00:15:41.707Z,20.80
2019-01-22T00:18:11.063Z,21.27
2019-01-22T00:20:40.424Z,22.73
2019-01-22T00:23:09.772Z,30.82
2019-01-22T00:25:39.472Z,29.65
2019-01-22T00:28:08.806Z,25.35
2019-01-22T00:30:38.194Z,25.37
2019-01-22T00:33:07.828Z,27.90
2019-01-22T00:35:37.194Z,29.75
2019-01-22T00:38:06.538Z,21.75
2019-01-22T00:40:35.912Z,21.52
2019-01-22T00:43:05.255Z,25.92
2019-01-22T00:45:34.652Z,23.95
2019-01-22T00:48:04.170Z,24.43
2019-01-22T00:50:33.543Z,27.67
2019-01-22T00:53:09.668Z,29.02
2019-01-22T00:55:34.236Z,25.60
2019-01-22T00:58:03.588Z,23.45
2019-01-22T01:00:34.154Z,20.62
2019-01-22T01:03:03.522Z,22.35
2019-01-22T01:05:32.962Z,25.52
2019-01-22T01:08:02.328Z,25.88
2019-01-22T01:10:31.673Z,18.75
2019-01-22T01:13:01.035Z,27.70
2019-01-22T01:15:30.377Z,23.83
2019-01-22T01:18:00.043Z,20.95
2019-01-22T01:20:29.387Z,24.77
2019-01-22T01:22:58.759Z,25.80
2019-01-22T01:25:28.131Z,25.50
2019-01-22T01:27:57.493Z,28.10
2019-01-22T01:30:27.284Z,27.75
2019-01-22T01:32:56.655Z,23.15
2019-01-22T01:35:25.998Z,27.45
2019-01-22T01:37:55.358Z,26.55
2019-01-22T01:40:24.709Z,17.98
2019-01-22T01:42:54.079Z,22.60
2019-01-22T01:45:23.630Z,36.33
2019-01-22T01:47:53.006Z,24.02
2019-01-22T01:50:22.363Z,21.05
2019-01-22T01:52:51.728Z,21.27
2019-01-22T01:55:21.070Z,20.27
2019-01-22T01:57:50.434Z,18.95
2019-01-22T02:00:23.492Z,23.90
2019-01-22T02:02:52.860Z,24.65
2019-01-22T02:05:22.212Z,26.12
2019-01-22T02:07:51.570Z,24.80
2019-01-22T02:10:22.943Z,29.85
2019-01-22T02:12:55.628Z,23.47
2019-01-22T02:15:44.590Z,24.23
2019-01-22T02:18:37.979Z,23.30
2019-01-22T02:21:57.259Z,17.07
2019-01-22T02:25:06.498Z,22.85
2019-01-22T02:28:07.558Z,24.25
2019-01-22T02:31:20.283Z,30.70
2019-01-22T02:34:18.183Z,22.70
2019-01-22T02:37:42.459Z,24.00
2019-01-22T02:40:31.855Z,32.45
2019-01-22T02:43:38.539Z,29.27
2019-01-22T02:46:41.749Z,29.77
2019-01-22T02:49:50.671Z,30.00
2019-01-22T02:52:59.118Z,23.92
2019-01-22T02:55:32.639Z,28.07
2019-01-22T02:58:17.155Z,28.55
2019-01-22T03:01:30.428Z,20.00
2019-01-22T03:04:28.088Z,21.33
2019-01-22T03:07:35.639Z,17.52
2019-01-22T03:10:58.394Z,17.80
2019-01-22T03:13:51.728Z,26.85
2019-01-22T03:16:42.550Z,22.02
2019-01-22T03:19:36.051Z,26.35
2019-01-22T03:22:46.755Z,25.23
2019-01-22T03:25:24.108Z,20.50
2019-01-22T03:28:00.627Z,28.25
2019-01-22T03:30:56.832Z,25.95
2019-01-22T03:34:11.865Z,19.77
2019-01-22T03:37:07.310Z,20.95
2019-01-22T03:39:57.311Z,21.40
2019-01-22T03:43:11.743Z,18.80
2019-01-22T03:46:00.244Z,17.90
2019-01-22T03:49:31.834Z,21.52
2019-01-22T03:52:40.930Z,18.98
2019-01-22T03:55:38.878Z,33.25
2019-01-22T03:58:12.511Z,37.10
2019-01-22T04:01:07.627Z,24.87
2019-01-22T04:03:37.521Z,22.87
2019-01-22T04:06:13.292Z,17.23
2019-01-22T04:08:45.603Z,25.00
2019-01-22T04:11:25.677Z,21.62
2019-01-22T04:13:55.051Z,26.70
2019-01-22T04:16:24.602Z,25.45
2019-01-22T04:18:53.986Z,23.73
2019-01-22T04:21:27.572Z,25.37
2019-01-22T04:24:30.348Z,26.73
2019-01-22T04:27:52.522Z,25.60
2019-01-22T04:30:55.610Z,25.02
2019-01-22T04:33:52.363Z,35.38
2019-01-22T04:36:53.636Z,25.12
2019-01-22T04:39:48.507Z,23.15
2019-01-22T04:43:05.005Z,26.25
2019-01-22T04:46:04.926Z,24.27
2019-01-22T04:49:12.508Z,25.82
2019-01-22T04:51:59.812Z,21.97
2019-01-22T04:55:26.702Z,16.73
2019-01-22T04:58:28.961Z,30.48
2019-01-22T05:01:35.011Z,19.32
2019-01-22T05:04:25.874Z,19.55
2019-01-22T05:07:25.758Z,19.87
2019-01-22T05:10:10.805Z,22.77
2019-01-22T05:13:36.015Z,22.32
2019-01-22T05:16:39.871Z,30.32
2019-01-22T05:19:15.035Z,23.60
2019-01-22T05:22:05.075Z,35.17
2019-01-22T05:25:08.651Z,24.98
2019-01-22T05:27:59.039Z,29.82
2019-01-22T05:30:57.293Z,24.65
2019-01-22T05:34:07.868Z,23.87
2019-01-22T05:37:07.567Z,25.85
2019-01-22T05:39:55.619Z,28.00
2019-01-22T05:43:00.155Z,28.67
2019-01-22T05:45:43.531Z,22.27
2019-01-22T05:48:36.556Z,29.63
2019-01-22T05:51:23.760Z,26.23
2019-01-22T05:54:09.534Z,31.80
2019-01-22T05:56:49.686Z,33.02
2019-01-22T05:59:50.195Z,28.98
2019-01-22T06:02:28.392Z,27.58
2019-01-22T06:05:47.887Z,32.28
2019-01-22T06:08:48.334Z,34.18
2019-01-22T06:11:46.599Z,37.25
2019-01-22T06:14:46.275Z,40.58
2019-01-22T06:18:01.108Z,30.12
2019-01-22T06:21:08.688Z,42.13
2019-01-22T06:24:08.770Z,44.50
2019-01-22T06:26:58.087Z,38.73
2019-01-22T06:30:10.868Z,41.65
2019-01-22T06:33:04.986Z,42.60
2019-01-22T06:35:47.730Z,50.90
2019-01-22T06:38:51.833Z,40.25
2019-01-22T06:42:09.966Z,45.50
2019-01-22T06:45:08.970Z,46.20
2019-01-22T06:48:25.320Z,45.88
2019-01-22T06:51:30.068Z,43.85
2019-01-22T06:54:13.455Z,49.50
2019-01-22T06:57:38.944Z,49.00
2019-01-22T07:00:44.919Z,55.23
2019-01-22T07:03:53.727Z,56.75
2019-01-22T07:07:10.055Z,63.00
2019-01-22T07:10:00.883Z,46.88
2019-01-22T07:13:23.384Z,66.12
2019-01-22T07:16:31.535Z,67.40
2019-01-22T07:19:37.570Z,55.98
2019-01-22T07:22:47.238Z,73.55
2019-01-22T07:26:09.515Z,54.80
2019-01-22T07:29:27.531Z,56.33
2019-01-22T07:32:43.539Z,67.67
2019-01-22T07:35:36.286Z,63.13
2019-01-22T07:38:39.778Z,51.15
2019-01-22T07:41:27.899Z,67.32
2019-01-22T07:44:37.178Z,67.65
2019-01-22T07:47:31.399Z,84.80
2019-01-22T07:50:22.159Z,58.30
2019-01-22T07:53:08.943Z,72.87
2019-01-22T07:55:51.590Z,71.35
2019-01-22T07:58:45.873Z,73.33
2019-01-22T08:01:39.480Z,66.33
2019-01-22T08:04:53.705Z,68.67
2019-01-22T08:08:43.598Z,78.22
2019-01-22T08:11:55.808Z,75.00
2019-01-22T08:15:00.976Z,71.15
2019-01-22T08:17:41.259Z,58.15
2019-01-22T08:20:54.979Z,54.25
2019-01-22T08:24:07.033Z,68.87
2019-01-22T08:27:22.048Z,74.42
2019-01-22T08:30:00.682Z,79.25
2019-01-22T08:33:09.674Z,60.40
2019-01-22T08:36:29.274Z,64.10
2019-01-22T08:39:24.526Z,67.50
2019-01-22T08:42:21.392Z,60.15
2019-01-22T08:45:36.426Z,59.25
2019-01-22T08:48:56.538Z,65.00
2019-01-22T08:52:07.078Z,66.57
2019-01-22T08:55:20.278Z,70.22
2019-01-22T08:58:42.975Z,70.67
2019-01-22T09:01:20.755Z,72.00
2019-01-22T09:04:49.252Z,67.55
2019-01-22T09:07:45.795Z,58.58
2019-01-22T09:10:54.440Z,71.30
2019-01-22T09:14:05.554Z,71.87
2019-01-22T09:17:14.619Z,73.22
2019-01-22T09:19:52.698Z,62.03
2019-01-22T09:23:14.867Z,77.80
2019-01-22T09:25:52.908Z,61.33
2019-01-22T09:28:47.512Z,70.28
2019-01-22T09:32:00.515Z,76.87
2019-01-22T09:35:00.554Z,64.10
2019-01-22T09:37:54.191Z,75.25
2019-01-22T09:40:24.523Z,62.20
2019-01-22T09:42:53.907Z,72.70
2019-01-22T09:45:23.296Z,77.75
2019-01-22T09:47:52.648Z,75.10
2019-01-22T09:50:22.031Z,81.55
2019-01-22T09:52:51.379Z,63.80
2019-01-22T09:55:22.464Z,78.00
2019-01-22T09:57:51.754Z,73.02
2019-01-22T10:00:21.452Z,60.23
2019-01-22T10:02:50.799Z,67.62
2019-01-22T10:05:20.183Z,64.47
2019-01-22T10:07:49.522Z,72.37
2019-01-22T10:10:19.943Z,67.45
2019-01-22T10:12:49.300Z,77.22
2019-01-22T10:15:20.322Z,77.42
2019-01-22T10:17:49.667Z,82.88
2019-01-22T10:20:21.018Z,63.45
2019-01-22T10:22:50.762Z,77.20
2019-01-22T10:25:20.539Z,66.62
2019-01-22T10:27:49.910Z,64.62
2019-01-22T10:30:23.551Z,66.35
2019-01-22T10:32:53.030Z,68.50
2019-01-22T10:35:22.374Z,61.95
2019-01-22T10:37:51.770Z,70.75
2019-01-22T10:40:22.465Z,69.45
2019-01-22T10:42:51.978Z,60.98
2019-01-22T10:45:21.433Z,65.87
2019-01-22T10:47:50.818Z,74.30
2019-01-22T10:50:21.121Z,62.03
2019-01-22T10:52:50.490Z,56.08
2019-01-22T10:55:19.852Z,58.35
2019-01-22T10:57:49.206Z,59.80
2019-01-22T11:00:36.786Z,61.75
2019-01-22T11:03:06.303Z,57.60
2019-01-22T11:05:37.671Z,66.70
2019-01-22T11:08:07.442Z,51.45
2019-01-22T11:10:36.778Z,65.67
2019-01-22T11:13:06.444Z,67.15
2019-01-22T11:15:35.807Z,62.67
2019-01-22T11:18:05.872Z,60.15
2019-01-22T11:20:35.211Z,57.38
2019-01-22T11:23:05.655Z,52.13
2019-01-22T11:25:35.751Z,56.73
2019-01-22T11:28:05.486Z,58.60
2019-01-22T11:30:34.831Z,62.17
2019-01-22T11:33:04.408Z,59.03
2019-01-22T11:35:33.758Z,62.50
2019-01-22T11:38:03.130Z,58.05
2019-01-22T11:40:43.886Z,58.08
2019-01-22T11:43:13.264Z,61.63
2019-01-22T11:45:42.666Z,60.55
2019-01-22T11:48:12.925Z,63.17
2019-01-22T11:50:42.279Z,56.68
2019-01-22T11:53:11.719Z,68.78
2019-01-22T11:55:41.072Z,64.00
2019-01-22T11:58:10.535Z,59.18
2019-01-22T12:00:51.949Z,62.58
2019-01-22T12:03:21.339Z,55.12
2019-01-22T12:05:53.301Z,56.53
2019-01-22T12:08:21.667Z,60.08
2019-01-22T12:10:51.044Z,53.85
2019-01-22T12:13:20.394Z,64.32
2019-01-22T12:15:49.766Z,60.92
2019-01-22T12:18:19.116Z,63.95
2019-01-22T12:20:49.326Z,71.82
2019-01-22T12:23:18.666Z,64.07
2019-01-22T12:25:48.063Z,62.33
2019-01-22T12:28:17.615Z,58.00
2019-01-22T12:30:46.987Z,70.60
2019-01-22T12:33:16.334Z,65.65
2019-01-22T12:35:45.703Z,56.35
2019-01-22T12:38:15.056Z,64.97
2019-01-22T12:40:44.428Z,67.67
2019-01-22T12:43:13.879Z,71.15
2019-01-22T12:45:43.247Z,51.05
2019-01-22T12:48:12.590Z,56.58
2019-01-22T12:50:41.959Z,68.17
2019-01-22T12:53:12.575Z,58.65
2019-01-22T12:55:41.960Z,60.85
2019-01-22T12:58:11.322Z,56.73
2019-01-22T13:00:40.799Z,74.00
2019-01-22T13:03:10.250Z,54.67
2019-01-22T13:05:48.209Z,55.48
2019-01-22T13:08:17.574Z,60.08
2019-01-22T13:10:47.010Z,58.00
2019-01-22T13:13:16.361Z,62.88
2019-01-22T13:15:45.718Z,60.80
2019-01-22T13:18:15.126Z,71.28
2019-01-22T13:20:44.751Z,60.60
2019-01-22T13:23:14.105Z,65.28
2019-01-22T13:25:43.504Z,56.30
2019-01-22T13:28:12.887Z,58.92
2019-01-22T13:30:42.237Z,57.00
2019-01-22T13:33:11.707Z,72.95
2019-01-22T13:35:41.055Z,64.90
2019-01-22T13:38:10.415Z,69.22
2019-01-22T13:40:39.718Z,53.87
2019-01-22T13:43:09.082Z,64.00
2019-01-22T13:45:38.788Z,60.67
2019-01-22T13:48:10.370Z,70.03
2019-01-22T13:50:39.682Z,64.60
2019-01-22T13:53:09.057Z,63.63
2019-01-22T13:55:38.946Z,57.90
2019-01-22T13:58:08.322Z,61.45
2019-01-22T14:00:37.671Z,51.77
2019-01-22T14:03:07.231Z,50.05
2019-01-22T14:05:36.579Z,49.95
2019-01-22T14:08:06.232Z,55.08
2019-01-22T14:10:35.592Z,48.85
2019-01-22T14:13:05.359Z,60.17
2019-01-22T14:15:40.002Z,61.45
2019-01-22T14:18:10.759Z,53.17
2019-01-22T14:20:40.128Z,55.33
2019-01-22T14:23:09.490Z,59.05
2019-01-22T14:25:38.879Z,50.80
2019-01-22T14:28:08.251Z,61.88
2019-01-22T14:30:38.975Z,49.80
2019-01-22T14:33:08.350Z,55.90
2019-01-22T14:35:37.694Z,47.62
2019-01-22T14:38:07.230Z,48.85
2019-01-22T14:40:36.576Z,54.63
2019-01-22T14:43:06.090Z,49.70
2019-01-22T14:45:35.442Z,46.20
2019-01-22T14:48:05.094Z,56.70
2019-01-22T14:50:34.616Z,51.65
2019-01-22T14:53:03.971Z,50.73
2019-01-22T14:55:33.767Z,45.40
2019-01-22T14:58:03.114Z,42.03
2019-01-22T15:00:32.595Z,47.48
2019-01-22T15:03:01.989Z,46.15
2019-01-22T15:05:31.361Z,52.65
2019-01-22T15:08:00.707Z,46.58
2019-01-22T15:10:30.079Z,47.48
2019-01-22T15:13:01.127Z,47.15
2019-01-22T15:15:30.590Z,51.42
2019-01-22T15:17:59.935Z,46.35
2019-01-22T15:20:29.306Z,50.58
2019-01-22T15:22:58.654Z,47.58
2019-01-22T15:25:28.053Z,43.80
2019-01-22T15:27:57.403Z,44.65
2019-01-22T15:30:31.868Z,40.30
2019-01-22T15:33:01.225Z,49.15
2019-01-22T15:35:30.599Z,50.25
2019-01-22T15:37:59.953Z,48.70
2019-01-22T15:40:30.154Z,41.58
2019-01-22T15:42:59.520Z,46.02
2019-01-22T15:45:29.287Z,45.75
2019-01-22T15:47:58.776Z,50.12
2019-01-22T15:50:28.159Z,45.33
2019-01-22T15:52:57.498Z,47.33
2019-01-22T15:55:32.087Z,45.70
2019-01-22T15:58:01.483Z,49.95
2019-01-22T16:00:30.862Z,42.73
2019-01-22T16:03:00.214Z,54.00
2019-01-22T16:05:29.591Z,41.20
2019-01-22T16:07:58.940Z,38.65
2019-01-22T16:10:28.387Z,43.85
2019-01-22T16:12:57.753Z,40.70
2019-01-22T16:15:27.174Z,44.18
2019-01-22T16:17:56.527Z,55.90
2019-01-22T16:20:27.280Z,36.75
2019-01-22T16:22:56.771Z,41.73
2019-01-22T16:25:26.263Z,45.63
2019-01-22T16:27:55.675Z,39.20
2019-01-22T16:30:26.663Z,51.58
2019-01-22T16:32:56.039Z,49.63
2019-01-22T16:35:26.683Z,44.58
2019-01-22T16:37:56.064Z,43.50
2019-01-22T16:40:25.616Z,44.95
2019-01-22T16:42:55.002Z,46.53
2019-01-22T16:45:29.671Z,46.20
2019-01-22T16:47:59.451Z,52.48
2019-01-22T16:50:30.215Z,50.23
2019-01-22T16:52:59.989Z,53.15
2019-01-22T16:55:31.602Z,45.58
2019-01-22T16:58:00.967Z,44.05
2019-01-22T17:00:31.646Z,45.25
2019-01-22T17:03:01.034Z,52.30
2019-01-22T17:05:30.378Z,49.05
2019-01-22T17:07:59.744Z,48.50
2019-01-22T17:10:29.098Z,51.15
2019-01-22T17:12:58.455Z,43.08
2019-01-22T17:15:27.802Z,56.85
2019-01-22T17:17:57.223Z,49.48
2019-01-22T17:20:28.927Z,46.88
2019-01-22T17:23:02.243Z,49.77
2019-01-22T17:25:29.515Z,50.35
2019-01-22T17:27:58.875Z,59.45
2019-01-22T17:30:30.936Z,49.88
2019-01-22T17:33:20.975Z,45.17
2019-01-22T17:35:51.341Z,57.48
2019-01-22T17:38:21.646Z,50.25
2019-01-22T17:40:50.990Z,52.48
2019-01-22T17:43:20.367Z,48.45
2019-01-22T17:45:49.718Z,50.12
2019-01-22T17:48:19.090Z,54.60
2019-01-22T17:50:48.539Z,50.70
2019-01-22T17:53:17.945Z,56.53
2019-01-22T17:55:47.556Z,62.53
2019-01-22T17:58:16.885Z,51.48
2019-01-22T18:00:46.347Z,57.17
2019-01-22T18:03:15.786Z,53.80
2019-01-22T18:05:45.135Z,57.27
2019-01-22T18:08:14.491Z,58.87
2019-01-22T18:10:43.855Z,56.30
2019-01-22T18:13:13.206Z,58.28
2019-01-22T18:15:42.578Z,49.70
2019-01-22T18:18:11.922Z,48.50
2019-01-22T18:20:41.291Z,49.93
2019-01-22T18:23:10.651Z,46.63
2019-01-22T18:25:40.043Z,50.55
2019-01-22T18:28:09.382Z,50.63
2019-01-22T18:30:38.758Z,47.05
2019-01-22T18:33:08.149Z,57.40
2019-01-22T18:35:40.048Z,43.42
2019-01-22T18:38:09.586Z,45.00
2019-01-22T18:40:38.942Z,50.05
2019-01-22T18:43:08.287Z,53.13
2019-01-22T18:45:37.668Z,53.60
2019-01-22T18:48:07.207Z,52.70
2019-01-22T18:50:36.595Z,59.00
2019-01-22T18:53:06.099Z,47.10
2019-01-22T18:55:35.479Z,49.90
2019-01-22T18:58:04.903Z,48.87
2019-01-22T19:00:34.283Z,53.90
2019-01-22T19:03:03.646Z,50.75
2019-01-22T19:05:33.026Z,75.95
2019-01-22T19:08:02.370Z,50.20
2019-01-22T19:10:31.746Z,49.35
2019-01-22T19:13:01.086Z,52.05
2019-01-22T19:15:30.462Z,48.73
2019-01-22T19:17:59.802Z,52.70
2019-01-22T19:20:29.381Z,46.45
2019-01-22T19:22:58.746Z,50.73
2019-01-22T19:25:28.542Z,46.80
2019-01-22T19:27:57.910Z,47.95
2019-01-22T19:30:28.703Z,55.38
2019-01-22T19:32:58.077Z,49.58
2019-01-22T19:35:27.618Z,48.55
2019-01-22T19:37:56.984Z,47.78
2019-01-22T19:40:26.346Z,50.83
2019-01-22T19:42:55.722Z,40.50
2019-01-22T19:45:27.550Z,46.33
2019-01-22T19:47:56.924Z,54.00
2019-01-22T19:50:26.463Z,49.98
2019-01-22T19:52:55.838Z,55.12
2019-01-22T19:55:25.197Z,43.30
2019-01-22T19:57:54.619Z,40.15
2019-01-22T20:00:26.624Z,41.68
2019-01-22T20:02:56.447Z,48.75
2019-01-22T20:05:26.103Z,47.95
2019-01-22T20:07:55.531Z,46.35
2019-01-22T20:10:24.980Z,46.28
2019-01-22T20:12:54.374Z,46.77
2019-01-22T20:15:24.046Z,50.88
2019-01-22T20:17:53.414Z,57.30
2019-01-22T20:20:22.775Z,49.18
2019-01-22T20:22:52.441Z,49.18
2019-01-22T20:25:21.907Z,46.18
2019-01-22T20:27:51.270Z,53.02
2019-01-22T20:30:29.043Z,38.75
2019-01-22T20:32:58.410Z,47.78
2019-01-22T20:35:27.854Z,41.73
2019-01-22T20:37:57.442Z,44.55
2019-01-22T20:40:26.798Z,39.50
2019-01-22T20:42:56.200Z,43.05
2019-01-22T20:45:26.931Z,59.73
2019-01-22T20:47:56.277Z,43.83
2019-01-22T20:50:25.651Z,46.13
2019-01-22T20:52:55.079Z,56.05
2019-01-22T20:55:24.591Z,46.45
2019-01-22T20:57:55.181Z,55.52
2019-01-22T21:00:25.110Z,53.00
2019-01-22T21:02:54.556Z,43.65
2019-01-22T21:05:26.575Z,43.85
2019-01-22T21:07:56.025Z,40.43
2019-01-22T21:10:33.146Z,44.63
2019-01-22T21:13:02.627Z,47.93
2019-01-22T21:15:31.998Z,44.90
2019-01-22T21:18:01.358Z,50.25
2019-01-22T21:20:30.739Z,47.62
2019-01-22T21:23:00.099Z,52.13
2019-01-22T21:25:29.491Z,47.45
2019-01-22T21:28:01.949Z,42.45
2019-01-22T21:30:31.974Z,45.05
2019-01-22T21:33:01.354Z,48.17
2019-01-22T21:35:30.723Z,51.77
2019-01-22T21:38:00.067Z,47.53
2019-01-22T21:40:29.542Z,47.65
2019-01-22T21:42:58.987Z,44.58
2019-01-22T21:45:28.382Z,42.67
2019-01-22T21:47:57.726Z,42.98
2019-01-22T21:50:27.103Z,44.70
2019-01-22T21:52:56.463Z,51.50
2019-01-22T21:55:25.955Z,46.02
2019-01-22T21:57:55.395Z,48.02
2019-01-22T22:00:25.441Z,47.50
2019-01-22T22:02:54.793Z,67.22
2019-01-22T22:05:26.779Z,51.33
2019-01-22T22:07:56.178Z,52.60
2019-01-22T22:10:25.595Z,42.80
2019-01-22T22:12:54.939Z,53.90
2019-01-22T22:15:24.934Z,51.63
2019-01-22T22:17:54.282Z,42.95
2019-01-22T22:20:23.637Z,51.70
2019-01-22T22:22:53.008Z,49.67
2019-01-22T22:25:22.831Z,39.60
2019-01-22T22:27:52.326Z,44.18
2019-01-22T22:30:32.856Z,50.15
2019-01-22T22:33:02.235Z,42.27
2019-01-22T22:35:31.588Z,49.23
2019-01-22T22:38:00.982Z,43.00
2019-01-22T22:40:30.327Z,43.08
2019-01-22T22:42:59.699Z,47.67
2019-01-22T22:45:29.043Z,51.68
2019-01-22T22:47:58.415Z,44.98
2019-01-22T22:50:29.966Z,45.55
2019-01-22T22:52:59.368Z,43.92
2019-01-22T22:55:28.917Z,45.70
2019-01-22T22:57:58.289Z,41.30
2019-01-22T23:00:45.527Z,49.48
2019-01-22T23:03:15.234Z,49.95
2019-01-22T23:05:44.587Z,44.95
2019-01-22T23:08:13.951Z,47.75
2019-01-22T23:10:43.832Z,46.23
2019-01-22T23:13:13.194Z,52.13
2019-01-22T23:15:42.571Z,41.83
2019-01-22T23:18:12.062Z,53.42
2019-01-22T23:20:41.514Z,43.17
2019-01-22T23:23:10.891Z,55.12
2019-01-22T23:25:40.279Z,50.78
2019-01-22T23:28:09.642Z,42.53
2019-01-22T23:30:39.018Z,48.02
2019-01-22T23:33:08.434Z,47.85
2019-01-22T23:35:37.789Z,51.55
2019-01-22T23:38:07.158Z,42.10
2019-01-22T23:40:36.499Z,44.05
2019-01-22T23:43:05.871Z,45.92
2019-01-22T23:45:35.244Z,54.90
2019-01-22T23:48:04.716Z,51.50
2019-01-22T23:50:34.067Z,46.05
2019-01-22T23:53:03.430Z,49.85
2019-01-22T23:55:32.777Z,44.80
2019-01-22T23:58:02.142Z,43.48
